航空気象通報

ウインドサーファーのための航空気象通報による風予報です。

9/11-9/13の航空気象通報

2017年09月11日 23時41分20秒 | TAF
羽田空港
TAF RJTT 111105Z 1112/1218 18020KT 8000 -SHRA FEW010 BKN020
TEMPO 1114/1118 4000 -SHRA BR
TEMPO 1118/1200 4000 -SHRA BR FEW005 BKN008
TEMPO 1200/1206 20028G38KT 4000 -SHRA BR FEW005 BKN008
BECMG 1209/1212 20006KT
日本時間11日21時-12日18時:180度から20ノットの風
但し、12日09-15時の間:時々200度から28ノット、突風38ノット
18-21時:風が変化
21時-13日03時:200度から6ノットの風


静岡空港
TAF RJNS 111112Z 1112/1218 20008KT 6000 -SHRA FEW005 BKN012
TEMPO 1115/1122 3000 SHRA BR FEW003 BKN005
BECMG 1117/1119 23014KT
TEMPO 1122/1200 3000 TSRA BR FEW003 BKN005 FEW020CB
TEMPO 1200/1203 23018G28KT 3000 TSRA BR FEW003 BKN005 FEW020CB
日本時間11日21時-12日02時:200度から8ノットの風
02-04時:風が変化
04時-13日03時:230度から14ノットの風
但し、12日09-12時の間:時々230度から18ノット、突風28ノット

但し、11日07-12時の間:時々

福岡空港
TAF RJFF 111107Z 1112/1218 18010KT 9000 -SHRA FEW010 SCT015 BKN025
BECMG 1113/1115 28007KT
TEMPO 1118/1200 4000 SHRA BR
BECMG 1212/1215 15004KT
日本時間11日21-22時:180度から10ノットの風
22-24時:風が変化
12日00-21時:280度から7ノットの風
21-24時:風が変化
13日00-03時:150度から4ノットの風


那覇空港
TAF ROAH 111105Z 1112/1218 12005KT 9999 FEW015
BECMG 1121/1123 08006KT
BECMG 1209/1212 10016KT
TEMPO 1209/1218 10018G30KT
日本時間11日21時-12日06時:120度から5ノットの風
06-08時:風が変化
08-18時:080度から6ノットの風
18-21時:風が変化
21時-13日03時:100度から16ノットの風
但し、12日18時-13日03時の間:時々100度から18ノット、突風30ノット


石垣空港
TAF ROIG 111108Z 1112/1218 06008KT 9999 FEW020
BECMG 1206/1209 03023KT
TEMPO 1206/1212 03025G35KT
TEMPO 1212/1218 03030G40KT 4000 SHRA FEW008 BKN015 FEW020CB
日本時間11日21時-12日15時:060度から8ノットの風
15-18時:風が変化
18時-13日03時:030度から23ノットの風
但し、12日15-21時の間:時々030度から25ノット、突風35ノット
但し、12日21時-13日03時の間:時々030度から30ノット、突風40ノット

但し、12日21時-13日03時の間:時々

マウイのカフルイ空港
PHOG 111120Z 1112/1212 13005KT P6SM FEW030 FEW050
FM111900 04010KT P6SM SCT030 SCT050
FM112300 04012G20KT P6SM VCSH SCT030 BKN050
FM120600 15005KT P6SM FEW030 FEW050 AMD LTD TO VIS AND WIND TIL 111600
ハワイ時間11日02-09時:130度から5ノットの風
09-13時:040度から10ノットの風
13-20時:040度から12ノット、突風20ノット
20時-12日02時:150度から5ノットの風


サイパン空港
TAF PGSN 111203Z 1112/1212 05011KT P6SM VCSH FEW020 SCT100
マリアナ時間11日22時-12日22時:050度から11ノットの風

コメント
この記事をはてなブックマークに追加